• Join FlightAware (Why Join?)
  • Login
  • US Flag 
10:25AM EDT


 

Airport Tracker/Info


-or-


 

Live Flight TrackerFlight Track Log ✈ MAS2266 ✈ 02-Aug-2013 ✈ WBGG / KCH - WBGS / SBW

Flight Track Log - Related Links

Times and Time Zones

All times are in EDT time to prevent confusion due to time zone crossing. See the MAS2266 flight status page for this flight to view local times or setup timezone preferences in your user account.

Time Position Orientation Groundspeed Altitude Reporting Facility
EDT Latitude Longitude Course Direction KTS MPH feet Rate Location/Type
10:33PM 1.4900 110.3590 135° Southeast  Level FlightAware
10:33PM 1.4880 110.3560 236° Southwest 86 99 600 Level FlightAware
10:33PM 1.4850 110.3470 252° West 145 167 1,080 Level FlightAware
10:34PM 1.4790 110.3320 248° West 168 193 700 2,160 Climbing FlightAware
10:34PM 1.4740 110.3190 249° West 170 196 1,400 2,160 Climbing FlightAware
10:34PM 1.4740 110.3150 270° West 175 201 1,500 1,620 Climbing FlightAware
10:35PM 1.4870 110.2990 309° West 191 220 2,200 1,800 Climbing FlightAware
10:35PM 1.4940 110.2970 344° North 195 224 2,500 1,680 Climbing FlightAware
10:35PM 1.5120 110.3040 21° North 209 241 3,000 1,200 Climbing FlightAware
10:35PM 1.5300 110.3140 29° Northeast 236 272 3,300 1,020 Climbing FlightAware
10:36PM 1.5500 110.3250 29° Northeast 263 303 3,700 1,200 Climbing FlightAware
10:36PM 1.5660 110.3360 34° Northeast 284 327 4,000 1,620 Climbing FlightAware
10:36PM 1.5890 110.3540 38° Northeast 296 341 4,700 2,100 Climbing FlightAware
10:37PM 1.6090 110.3710 40° Northeast 307 353 5,400 2,340 Climbing FlightAware
10:37PM 1.6350 110.3920 39° Northeast 310 357 6,400 2,880 Climbing FlightAware
10:37PM 1.6590 110.4120 40° Northeast 309 356 7,600 3,300 Climbing FlightAware
10:38PM 1.6780 110.4300 43° Northeast 305 351 8,600 2,880 Climbing FlightAware
10:38PM 1.7000 110.4490 41° Northeast 311 358 9,500 1,800 Climbing FlightAware
10:38PM 1.7180 110.4650 42° Northeast 332 382 9,700 1,740 Climbing FlightAware
10:39PM 1.7540 110.4970 42° Northeast 348 400 10,900 2,340 Climbing FlightAware
10:39PM 1.7640 110.5100 52° Northeast 351 404 11,300 2,100 Climbing FlightAware
10:40PM 1.7880 110.5700 68° East 373 429 12,600 2,400 Climbing FlightAware
10:40PM 1.8050 110.6200 71° East 377 434 14,100 2,160 Climbing FlightAware
10:41PM 1.8280 110.6830 70° East 385 443 15,100 1,620 Climbing FlightAware
10:41PM 1.8470 110.7440 73° East 389 448 16,100 1,560 Climbing FlightAware
10:42PM 1.8670 110.8080 73° East 401 461 17,000 780 Climbing FlightAware
10:42PM 1.8830 110.8600 73° East 402 463 17,000  Level FlightAware
10:43PM 1.9040 110.9270 73° East 401 461 17,000  Level FlightAware
10:44PM 1.9320 110.9890 66° East 400 460 17,000  Level FlightAware
10:44PM 1.9570 111.0420 65° Northeast 399 459 17,000 -900 Level FlightAware
10:45PM 1.9860 111.1020 64° Northeast 395 455 16,000 -1,080 Descending FlightAware
10:45PM 2.0110 111.1550 65° Northeast 397 457 15,700 -2,400 Descending FlightAware
10:46PM 2.0410 111.2200 65° Northeast 389 448 13,100 -3,600 Descending FlightAware
10:47PM 2.0660 111.2720 64° Northeast 391 450 11,700 -2,340 Descending FlightAware
10:47PM 2.0940 111.3310 65° Northeast 381 438 10,500 -1,260 Descending FlightAware
10:48PM 2.1200 111.3860 65° Northeast 376 433 10,100 -360 Descending FlightAware
10:48PM 2.1440 111.4330 63° Northeast 376 433 10,100  Level FlightAware
10:49PM 2.1680 111.4830 64° Northeast 376 433 10,100  Level FlightAware
10:52PM 2.2088 111.6977 79° East  Level Estimated
10:53PM 2.2256 111.7865 79° East  Level Estimated
10:54PM 2.2425 111.8754 79° East  Level Estimated
10:55PM 2.2593 111.9642 79° East  Level Estimated
10:56PM 2.2635 111.9862 79° East  Level Estimated
10:57PM 2.2635 111.9862 217° Southwest  Level Estimated
10:58PM 2.2635 111.9862 217° Southwest  Level Estimated
10:59PM 2.2635 111.9862 217° Southwest  Level Estimated
11:00PM 2.2635 111.9862 217° Southwest  Level Estimated
11:01PM 2.2635 111.9862 217° Southwest  Level Estimated
11:02PM 2.2635 111.9862 217° Southwest  Level Estimated
11:03PM 2.2635 111.9862 217° Southwest  Level Estimated
11:04PM 2.2635 111.9862 217° Southwest  Level Estimated
11:05PM 2.2635 111.9862 217° Southwest  Level Estimated
11:06PM 2.2635 111.9862 217° Southwest  Level Estimated
11:07PM 2.2635 111.9862 217° Southwest  Level Estimated
11:08PM 2.2635 111.9862 217° Southwest  Level Estimated
11:09PM 2.2635 111.9862 217° Southwest  Level Estimated
11:10PM 2.2635 111.9862 217° Southwest  Level Estimated